createdAt,value
2022-11-08T00:02:26.320Z,7.38
2022-11-08T00:04:53.161Z,9.80
2022-11-08T00:07:38.353Z,7.35
2022-11-08T00:10:24.470Z,7.60
2022-11-08T00:13:10.251Z,8.75
2022-11-08T00:15:38.687Z,8.43
2022-11-08T00:18:07.058Z,6.38
2022-11-08T00:20:34.060Z,7.70
2022-11-08T00:23:00.679Z,7.43
2022-11-08T00:25:27.342Z,10.85
2022-11-08T00:27:54.015Z,6.05
2022-11-08T00:30:20.855Z,11.68
2022-11-08T00:32:47.444Z,4.22
2022-11-08T00:35:14.118Z,7.38
2022-11-08T00:37:40.730Z,8.68
2022-11-08T00:40:07.680Z,7.47
2022-11-08T00:42:34.417Z,7.18
2022-11-08T00:45:01.113Z,10.05
2022-11-08T00:47:27.741Z,8.77
2022-11-08T00:49:54.309Z,6.80
2022-11-08T00:52:21.002Z,5.03
2022-11-08T00:54:47.671Z,5.80
2022-11-08T00:57:14.285Z,6.18
2022-11-08T00:59:40.974Z,5.72
2022-11-08T01:02:07.827Z,6.95
2022-11-08T01:04:34.561Z,6.07
2022-11-08T01:07:01.267Z,5.35
2022-11-08T01:09:27.918Z,8.18
2022-11-08T01:11:54.524Z,6.85
2022-11-08T01:14:21.186Z,9.20
2022-11-08T01:16:47.922Z,6.25
2022-11-08T01:19:14.559Z,6.95
2022-11-08T01:21:41.172Z,5.63
2022-11-08T01:24:07.939Z,6.95
2022-11-08T01:26:34.868Z,6.40
2022-11-08T01:29:01.524Z,6.82
2022-11-08T01:31:30.785Z,5.03
2022-11-08T01:33:58.252Z,4.05
2022-11-08T01:36:27.013Z,6.13
2022-11-08T01:38:55.212Z,4.43
2022-11-08T01:41:24.152Z,6.68
2022-11-08T01:44:00.550Z,5.28
2022-11-08T01:46:38.688Z,6.22
2022-11-08T01:49:26.486Z,5.18
2022-11-08T01:52:08.152Z,5.25
2022-11-08T01:54:53.335Z,6.45
2022-11-08T01:57:24.718Z,4.20
2022-11-08T01:59:55.106Z,6.40
2022-11-08T02:02:22.214Z,6.20
2022-11-08T02:04:49.049Z,7.65
2022-11-08T02:07:17.474Z,6.10
2022-11-08T02:09:46.922Z,4.90
2022-11-08T02:12:15.605Z,4.45
2022-11-08T02:14:42.609Z,8.13
2022-11-08T02:17:09.666Z,8.02
2022-11-08T02:19:48.741Z,6.97
2022-11-08T02:22:31.280Z,6.65
2022-11-08T02:24:58.549Z,8.02
2022-11-08T02:27:26.004Z,4.78
2022-11-08T02:29:54.681Z,6.00
2022-11-08T02:32:21.997Z,5.80
2022-11-08T02:34:56.088Z,8.27
2022-11-08T02:37:25.385Z,10.77
2022-11-08T02:39:52.016Z,6.40
2022-11-08T02:42:20.291Z,5.18
2022-11-08T02:44:47.270Z,7.05
2022-11-08T02:47:14.071Z,9.23
2022-11-08T02:49:40.822Z,8.40
2022-11-08T02:52:07.643Z,6.75
2022-11-08T02:54:34.898Z,6.80
2022-11-08T02:57:01.512Z,5.05
2022-11-08T02:59:28.107Z,7.60
2022-11-08T03:02:03.789Z,6.30
2022-11-08T03:04:30.486Z,6.50
2022-11-08T03:06:57.072Z,8.90
2022-11-08T03:09:23.746Z,9.43
2022-11-08T03:11:50.330Z,8.13
2022-11-08T03:14:16.959Z,7.88
2022-11-08T03:16:43.588Z,7.70
2022-11-08T03:19:11.940Z,7.22
2022-11-08T03:21:38.531Z,6.85
2022-11-08T03:24:05.795Z,7.90
2022-11-08T03:26:32.985Z,7.63
2022-11-08T03:28:59.624Z,6.68
2022-11-08T03:31:26.392Z,4.00
2022-11-08T03:33:53.061Z,5.30
2022-11-08T03:36:19.783Z,9.77
2022-11-08T03:38:46.366Z,7.80
2022-11-08T03:41:13.014Z,7.50
2022-11-08T03:43:39.650Z,8.23
2022-11-08T03:46:06.275Z,6.20
2022-11-08T03:48:32.894Z,7.13
2022-11-08T03:50:59.458Z,7.28
2022-11-08T03:53:26.256Z,7.30
2022-11-08T03:55:52.952Z,6.60
2022-11-08T03:58:19.842Z,9.23
2022-11-08T04:00:46.911Z,6.68
2022-11-08T04:03:13.765Z,9.45
2022-11-08T04:05:40.337Z,8.85
2022-11-08T04:08:07.176Z,8.10
2022-11-08T04:10:34.264Z,10.65
2022-11-08T04:13:20.120Z,6.30
2022-11-08T04:15:51.273Z,6.65
2022-11-08T04:18:36.641Z,5.70
2022-11-08T04:21:22.055Z,8.90
2022-11-08T04:23:50.742Z,7.22
2022-11-08T04:26:17.830Z,6.47
2022-11-08T04:28:44.544Z,5.53
2022-11-08T04:31:18.268Z,7.38
2022-11-08T04:33:45.630Z,7.25
2022-11-08T04:36:15.005Z,11.25
2022-11-08T04:38:41.615Z,9.95
2022-11-08T04:41:13.364Z,7.50
2022-11-08T04:43:40.522Z,8.02
2022-11-08T04:46:12.180Z,5.28
2022-11-08T04:48:38.911Z,7.05
2022-11-08T04:51:06.840Z,5.90
2022-11-08T04:53:33.523Z,8.57
2022-11-08T04:56:05.752Z,6.32
2022-11-08T04:58:37.355Z,7.72
2022-11-08T05:01:05.543Z,5.88
2022-11-08T05:03:32.341Z,6.25
2022-11-08T05:06:14.516Z,7.82
2022-11-08T05:08:41.626Z,7.82
2022-11-08T05:11:14.126Z,6.72
2022-11-08T05:13:41.168Z,7.55
2022-11-08T05:16:16.793Z,8.10
2022-11-08T05:18:44.358Z,10.10
2022-11-08T05:21:31.201Z,5.57
2022-11-08T05:23:58.488Z,6.32
2022-11-08T05:26:25.337Z,6.50
2022-11-08T05:28:52.118Z,8.15
2022-11-08T05:31:18.945Z,7.35
2022-11-08T05:33:45.804Z,6.78
2022-11-08T05:36:15.211Z,7.30
2022-11-08T05:38:42.256Z,8.30
2022-11-08T05:41:15.798Z,6.43
2022-11-08T05:43:43.147Z,9.80
2022-11-08T05:46:09.871Z,5.28
2022-11-08T05:48:36.574Z,6.38
2022-11-08T05:51:05.736Z,7.47
2022-11-08T05:53:32.595Z,7.47
2022-11-08T05:56:00.278Z,6.30
2022-11-08T05:58:27.789Z,5.03
2022-11-08T06:01:02.870Z,4.60
2022-11-08T06:03:30.310Z,9.15
2022-11-08T06:06:05.902Z,5.30
2022-11-08T06:08:32.571Z,7.43
2022-11-08T06:11:07.646Z,10.38
2022-11-08T06:13:35.487Z,10.00
2022-11-08T06:16:11.012Z,9.90
2022-11-08T06:18:38.790Z,5.65
2022-11-08T06:21:07.738Z,7.63
2022-11-08T06:23:34.788Z,5.95
2022-11-08T06:26:01.846Z,6.13
2022-11-08T06:28:28.732Z,6.97
2022-11-08T06:30:57.848Z,7.78
2022-11-08T06:33:25.276Z,7.72
2022-11-08T06:35:52.027Z,5.20
2022-11-08T06:38:18.764Z,6.00
2022-11-08T06:40:45.696Z,8.20
2022-11-08T06:43:18.177Z,5.25
2022-11-08T06:45:46.354Z,8.48
2022-11-08T06:48:13.220Z,7.28
2022-11-08T06:50:41.430Z,7.57
2022-11-08T06:53:10.693Z,6.63
2022-11-08T06:55:37.360Z,8.07
2022-11-08T06:58:04.681Z,8.48
2022-11-08T07:00:31.861Z,9.88
2022-11-08T07:03:01.310Z,8.70
2022-11-08T07:05:29.880Z,8.35
2022-11-08T07:08:00.815Z,9.18
2022-11-08T07:10:30.407Z,6.95
2022-11-08T07:13:13.866Z,6.85
2022-11-08T07:15:41.470Z,10.63
2022-11-08T07:18:13.382Z,8.13
2022-11-08T07:20:40.537Z,6.15
2022-11-08T07:23:08.390Z,4.15
2022-11-08T07:25:35.556Z,7.03
2022-11-08T07:28:06.666Z,8.52
2022-11-08T07:30:35.122Z,6.03
2022-11-08T07:33:01.740Z,8.98
2022-11-08T07:35:28.465Z,7.55
2022-11-08T07:37:55.398Z,5.85
2022-11-08T07:40:22.465Z,4.45
2022-11-08T07:43:10.695Z,5.65
2022-11-08T07:45:35.772Z,6.22
2022-11-08T07:48:10.631Z,5.30
2022-11-08T07:50:38.781Z,3.67
2022-11-08T07:53:05.472Z,4.25
2022-11-08T07:55:32.069Z,3.97
2022-11-08T07:58:02.711Z,4.30
2022-11-08T08:00:31.157Z,4.13
2022-11-08T08:03:01.735Z,5.13
2022-11-08T08:05:30.790Z,5.30
2022-11-08T08:07:58.791Z,2.78
2022-11-08T08:10:26.802Z,3.28
2022-11-08T08:12:54.150Z,3.78
2022-11-08T08:15:20.741Z,5.93
2022-11-08T08:17:47.295Z,4.43
2022-11-08T08:20:14.880Z,5.05
2022-11-08T08:22:50.519Z,7.60
2022-11-08T08:25:17.768Z,3.65
2022-11-08T08:27:55.133Z,4.80
2022-11-08T08:30:23.054Z,4.97
2022-11-08T08:33:08.448Z,3.65
2022-11-08T08:35:37.532Z,2.55
2022-11-08T08:38:05.369Z,4.38
2022-11-08T08:40:32.326Z,4.70
2022-11-08T08:43:04.969Z,3.95
2022-11-08T08:45:35.401Z,2.28
2022-11-08T08:48:02.664Z,4.43
2022-11-08T08:50:31.347Z,3.13
2022-11-08T08:53:03.120Z,2.50
2022-11-08T08:55:30.933Z,2.42
2022-11-08T08:57:57.926Z,4.47
2022-11-08T09:03:12.211Z,3.67
2022-11-08T09:05:44.038Z,3.00
2022-11-08T09:08:11.826Z,4.13
2022-11-08T09:10:38.564Z,2.40
2022-11-08T09:13:05.414Z,2.47
2022-11-08T09:15:32.504Z,5.10
2022-11-08T09:17:59.496Z,3.42
2022-11-08T09:20:26.443Z,3.88
2022-11-08T09:22:53.108Z,3.38
2022-11-08T09:25:19.698Z,7.63
2022-11-08T09:27:46.288Z,2.70
2022-11-08T09:30:13.753Z,3.80
2022-11-08T09:35:30.608Z,2.95
2022-11-08T09:37:58.262Z,1.92
2022-11-08T09:40:42.855Z,4.45
2022-11-08T09:43:21.358Z,2.47
2022-11-08T09:45:50.670Z,3.03
2022-11-08T09:48:25.028Z,3.03
2022-11-08T09:51:01.648Z,3.20
2022-11-08T09:53:49.323Z,2.88
2022-11-08T09:56:18.987Z,2.38
2022-11-08T09:58:54.680Z,3.50
2022-11-08T10:01:26.861Z,3.20
2022-11-08T10:03:57.248Z,3.83
2022-11-08T10:06:46.935Z,2.30
2022-11-08T10:09:23.449Z,2.00
2022-11-08T10:12:23.175Z,4.05
2022-11-08T10:15:12.514Z,3.38
2022-11-08T10:18:01.069Z,3.63
2022-11-08T10:20:32.697Z,2.75
2022-11-08T10:23:18.403Z,4.65
2022-11-08T10:25:55.124Z,3.50
2022-11-08T10:28:28.545Z,2.60
2022-11-08T10:30:55.718Z,3.25
2022-11-08T10:33:32.484Z,3.17
2022-11-08T10:36:03.469Z,2.17
2022-11-08T10:38:45.553Z,2.47
2022-11-08T10:41:36.001Z,2.45
2022-11-08T10:44:20.965Z,2.20
2022-11-08T10:46:59.682Z,3.33
2022-11-08T10:49:34.236Z,2.88
2022-11-08T10:52:12.880Z,1.73
2022-11-08T10:54:56.460Z,1.80
2022-11-08T10:57:34.333Z,3.15
2022-11-08T11:00:19.758Z,2.88
2022-11-08T11:02:55.302Z,1.85
2022-11-08T11:05:30.350Z,6.38
2022-11-08T11:08:16.749Z,2.60
2022-11-08T11:10:46.339Z,1.70
2022-11-08T11:13:18.296Z,2.90
2022-11-08T11:15:50.847Z,2.38
2022-11-08T11:18:26.444Z,2.47
2022-11-08T11:21:00.783Z,2.33
2022-11-08T11:23:54.882Z,2.30
2022-11-08T11:26:32.147Z,2.38
2022-11-08T11:29:18.021Z,3.33
2022-11-08T11:31:47.441Z,1.27
2022-11-08T11:34:17.128Z,3.78
2022-11-08T11:37:04.904Z,2.10
2022-11-08T11:39:45.866Z,1.80
2022-11-08T11:42:45.694Z,2.08
2022-11-08T11:45:40.597Z,3.95
2022-11-08T11:48:28.958Z,3.72
2022-11-08T11:50:56.878Z,2.22
2022-11-08T11:53:33.795Z,1.77
2022-11-08T11:56:21.281Z,2.30
2022-11-08T11:59:12.636Z,2.35
2022-11-08T12:01:42.226Z,2.17
2022-11-08T12:04:34.168Z,3.28
2022-11-08T12:07:11.634Z,1.15
2022-11-08T12:09:50.802Z,2.78
2022-11-08T12:12:34.042Z,3.42
2022-11-08T12:15:26.051Z,2.40
2022-11-08T12:18:15.403Z,3.72
2022-11-08T12:21:04.859Z,1.90
2022-11-08T12:24:08.501Z,1.20
2022-11-08T12:26:58.863Z,1.63
2022-11-08T12:29:46.546Z,2.25
2022-11-08T12:32:40.317Z,2.08
2022-11-08T12:35:23.010Z,2.08
2022-11-08T12:37:58.780Z,1.30
2022-11-08T12:40:39.187Z,2.35
2022-11-08T12:43:32.051Z,2.10
2022-11-08T12:46:18.119Z,4.25
2022-11-08T12:49:06.132Z,1.45
2022-11-08T12:51:49.996Z,2.95
2022-11-08T12:54:30.228Z,3.05
2022-11-08T12:57:03.008Z,2.22
2022-11-08T12:59:46.930Z,3.55
2022-11-08T13:02:33.679Z,2.33
2022-11-08T13:05:17.706Z,1.63
2022-11-08T13:08:20.579Z,1.58
2022-11-08T13:10:53.375Z,1.65
2022-11-08T13:13:22.673Z,1.70
2022-11-08T13:16:08.295Z,2.33
2022-11-08T13:18:48.789Z,5.35
2022-11-08T13:21:27.685Z,1.80
2022-11-08T13:24:37.942Z,1.13
2022-11-08T13:26:57.003Z,2.83
2022-11-08T13:29:27.506Z,2.67
2022-11-08T13:31:54.068Z,1.80
2022-11-08T13:34:40.092Z,2.00
2022-11-08T13:37:20.811Z,1.33
2022-11-08T13:39:47.333Z,1.73
2022-11-08T13:42:16.897Z,2.17
2022-11-08T13:44:55.806Z,1.55
2022-11-08T13:47:34.581Z,1.75
2022-11-08T13:50:29.237Z,1.70
2022-11-08T13:53:23.724Z,1.98
2022-11-08T13:55:55.928Z,2.55
2022-11-08T13:58:36.067Z,3.72
2022-11-08T14:01:08.284Z,2.25
2022-11-08T14:03:34.952Z,2.90
2022-11-08T14:06:18.200Z,1.58
2022-11-08T14:08:47.911Z,1.48
2022-11-08T14:11:40.390Z,3.03
2022-11-08T14:14:34.978Z,2.13
2022-11-08T14:17:33.936Z,1.55
2022-11-08T14:23:20.853Z,1.30
2022-11-08T14:25:57.607Z,2.60
2022-11-08T14:28:51.484Z,1.92
2022-11-08T14:31:32.705Z,2.40
2022-11-08T14:34:00.671Z,3.70
2022-11-08T14:36:30.045Z,3.20
2022-11-08T14:39:17.077Z,5.68
2022-11-08T14:41:51.572Z,9.02
2022-11-08T14:44:19.008Z,9.45
2022-11-08T14:46:46.022Z,10.73
2022-11-08T14:49:18.475Z,7.35
2022-11-08T14:51:48.658Z,14.75
2022-11-08T14:54:20.694Z,16.40
2022-11-08T14:56:48.348Z,10.10
2022-11-08T14:59:15.112Z,5.85
2022-11-08T15:01:45.525Z,3.70
2022-11-08T15:04:16.039Z,4.82
2022-11-08T15:06:45.466Z,2.80
2022-11-08T15:09:31.765Z,6.38
2022-11-08T15:12:20.423Z,1.65
2022-11-08T15:15:00.093Z,3.20
2022-11-08T15:17:32.652Z,1.55
2022-11-08T15:20:17.437Z,2.20
2022-11-08T15:22:46.335Z,1.58
2022-11-08T15:25:29.517Z,2.85
2022-11-08T15:27:58.192Z,4.40
2022-11-08T15:30:38.517Z,1.55
2022-11-08T15:33:05.918Z,2.15
2022-11-08T15:35:38.020Z,3.67
2022-11-08T15:38:20.101Z,2.63
2022-11-08T15:40:51.401Z,3.30
2022-11-08T15:43:30.101Z,2.28
2022-11-08T15:45:58.584Z,2.78
2022-11-08T15:48:29.113Z,2.65
2022-11-08T15:50:59.563Z,4.93
2022-11-08T15:53:27.318Z,2.95
2022-11-08T15:55:57.529Z,2.17
2022-11-08T15:58:27.980Z,3.15
2022-11-08T16:00:57.334Z,2.67
2022-11-08T16:03:24.687Z,2.15
2022-11-08T16:05:51.434Z,3.10
2022-11-08T16:08:20.982Z,3.40
2022-11-08T16:10:53.654Z,2.17
2022-11-08T16:13:40.615Z,2.95
2022-11-08T16:16:12.516Z,2.08
2022-11-08T16:18:40.172Z,2.17
2022-11-08T16:21:07.066Z,2.17
2022-11-08T16:23:33.713Z,2.40
2022-11-08T16:26:03.448Z,1.73
2022-11-08T16:28:37.772Z,4.85
2022-11-08T16:31:06.639Z,4.00
2022-11-08T16:33:35.338Z,2.60
2022-11-08T16:36:18.733Z,1.25
2022-11-08T16:38:57.317Z,1.80
2022-11-08T16:41:25.090Z,2.15
2022-11-08T16:43:52.353Z,2.80
2022-11-08T16:46:22.868Z,1.83
2022-11-08T16:48:54.990Z,2.47
2022-11-08T16:51:23.346Z,1.80
2022-11-08T16:53:50.183Z,1.77
2022-11-08T16:56:17.509Z,4.13
2022-11-08T16:58:44.580Z,1.83
2022-11-08T17:01:19.124Z,2.53
2022-11-08T17:03:45.823Z,2.97
2022-11-08T17:06:31.236Z,3.58
2022-11-08T17:08:57.919Z,3.05
2022-11-08T17:11:24.641Z,4.57
2022-11-08T17:13:52.623Z,2.58
2022-11-08T17:16:20.040Z,4.15
2022-11-08T17:18:52.305Z,7.22
2022-11-08T17:24:06.709Z,11.73
2022-11-08T17:26:33.309Z,4.38
2022-11-08T17:28:59.970Z,3.17
2022-11-08T17:31:26.565Z,5.20
2022-11-08T17:33:54.997Z,2.63
2022-11-08T17:36:21.570Z,3.03
2022-11-08T17:38:48.135Z,2.70
2022-11-08T17:41:15.665Z,3.53
2022-11-08T17:43:43.013Z,2.38
2022-11-08T17:46:11.079Z,2.20
2022-11-08T17:48:39.220Z,1.65
2022-11-08T17:51:06.528Z,2.90
2022-11-08T17:53:34.495Z,3.05
2022-11-08T17:56:03.990Z,5.70
2022-11-08T17:58:33.727Z,6.70
2022-11-08T18:01:03.187Z,3.60
2022-11-08T18:03:30.472Z,3.63
2022-11-08T18:06:06.455Z,7.45
2022-11-08T18:08:34.330Z,6.72
2022-11-08T18:11:01.127Z,2.28
2022-11-08T18:13:28.704Z,4.50
2022-11-08T18:15:55.682Z,4.75
2022-11-08T18:18:22.339Z,2.50
2022-11-08T18:20:56.101Z,5.18
2022-11-08T18:23:23.109Z,3.78
2022-11-08T18:25:50.806Z,5.25
2022-11-08T18:28:17.784Z,5.95
2022-11-08T18:30:47.816Z,4.75
2022-11-08T18:33:17.132Z,4.05
2022-11-08T18:35:44.073Z,2.28
2022-11-08T18:38:12.101Z,2.17
2022-11-08T18:40:39.361Z,2.47
2022-11-08T18:43:06.603Z,2.75
2022-11-08T18:45:33.235Z,2.55
2022-11-08T18:48:00.032Z,6.82
2022-11-08T18:50:26.649Z,5.53
2022-11-08T18:52:53.228Z,2.45
2022-11-08T18:55:19.824Z,3.22
2022-11-08T18:57:46.388Z,2.75
2022-11-08T19:00:13.305Z,3.15
2022-11-08T19:02:39.958Z,3.17
2022-11-08T19:05:06.802Z,3.22
2022-11-08T19:07:33.432Z,4.35
2022-11-08T19:10:00.167Z,3.45
2022-11-08T19:12:29.695Z,1.50
2022-11-08T19:14:56.381Z,3.22
2022-11-08T19:17:23.328Z,2.97
2022-11-08T19:19:50.108Z,2.38
2022-11-08T19:22:16.720Z,2.88
2022-11-08T19:24:43.326Z,3.15
2022-11-08T19:27:09.979Z,2.08
2022-11-08T19:29:36.702Z,2.83
2022-11-08T19:32:03.533Z,1.90
2022-11-08T19:34:31.268Z,4.40
2022-11-08T19:36:57.882Z,1.88
2022-11-08T19:39:24.633Z,3.92
2022-11-08T19:41:51.343Z,2.95
2022-11-08T19:44:18.178Z,3.65
2022-11-08T19:46:44.799Z,1.73
2022-11-08T19:49:11.728Z,3.85
2022-11-08T19:51:38.960Z,3.92
2022-11-08T19:54:08.218Z,2.58
2022-11-08T19:57:04.037Z,3.22
2022-11-08T19:59:23.557Z,4.82
2022-11-08T20:01:50.234Z,2.50
2022-11-08T20:04:19.465Z,3.15
2022-11-08T20:06:46.486Z,5.25
2022-11-08T20:09:13.356Z,5.50
2022-11-08T20:11:41.666Z,3.45
2022-11-08T20:14:10.584Z,3.97
2022-11-08T20:16:40.895Z,3.15
2022-11-08T20:19:13.945Z,3.08
2022-11-08T20:21:42.179Z,2.97
2022-11-08T20:24:10.221Z,5.22
2022-11-08T20:26:38.662Z,2.53
2022-11-08T20:29:07.156Z,3.13
2022-11-08T20:31:34.417Z,2.38
2022-11-08T20:34:01.743Z,4.40
2022-11-08T20:36:33.157Z,4.10
2022-11-08T20:39:06.599Z,4.72
2022-11-08T20:41:35.394Z,2.28
2022-11-08T20:44:02.491Z,3.65
2022-11-08T20:46:29.615Z,4.45
2022-11-08T20:54:24.751Z,4.18
2022-11-08T20:57:24.153Z,2.22
2022-11-08T20:59:53.962Z,3.28
2022-11-08T21:02:20.959Z,3.97
2022-11-08T21:04:47.739Z,4.22
2022-11-08T21:10:27.518Z,2.83
2022-11-08T21:12:48.278Z,3.70
2022-11-08T21:15:15.161Z,3.92
2022-11-08T21:17:42.003Z,6.25
2022-11-08T21:20:09.730Z,5.28
2022-11-08T21:22:36.337Z,1.60
2022-11-08T21:25:03.963Z,3.10
2022-11-08T21:27:36.973Z,6.85
2022-11-08T21:30:04.199Z,14.02
2022-11-08T21:32:30.943Z,14.85
2022-11-08T21:34:57.716Z,20.45
2022-11-08T21:37:25.005Z,29.08
2022-11-08T21:39:51.572Z,10.93
2022-11-08T21:42:18.176Z,3.97
2022-11-08T21:44:44.749Z,3.55
2022-11-08T21:47:15.502Z,4.80
2022-11-08T21:49:42.956Z,4.38
2022-11-08T21:52:09.992Z,2.72
2022-11-08T21:54:37.030Z,4.65
2022-11-08T21:57:04.385Z,3.15
2022-11-08T21:59:34.115Z,4.00
2022-11-08T22:02:18.810Z,2.53
2022-11-08T22:04:45.465Z,3.10
2022-11-08T22:07:12.116Z,1.90
2022-11-08T22:09:38.816Z,2.17
2022-11-08T22:12:06.040Z,3.90
2022-11-08T22:14:33.284Z,2.28
2022-11-08T22:17:00.515Z,3.88
2022-11-08T22:19:27.173Z,3.42
2022-11-08T22:21:53.824Z,4.65
2022-11-08T22:24:20.667Z,1.95
2022-11-08T22:26:49.052Z,3.75
2022-11-08T22:29:16.006Z,1.95
2022-11-08T22:31:43.889Z,3.40
2022-11-08T22:34:10.870Z,3.85
2022-11-08T22:36:44.510Z,2.35
2022-11-08T22:39:14.299Z,2.67
2022-11-08T22:41:43.014Z,3.03
2022-11-08T22:44:12.275Z,1.98
2022-11-08T22:46:40.413Z,2.13
2022-11-08T22:49:07.155Z,2.33
2022-11-08T22:51:33.845Z,2.75
2022-11-08T22:54:00.670Z,2.90
2022-11-08T22:56:27.400Z,2.25
2022-11-08T22:58:54.072Z,2.00
2022-11-08T23:01:21.022Z,3.55
2022-11-08T23:03:48.482Z,3.67
2022-11-08T23:06:16.170Z,5.00
2022-11-08T23:08:43.208Z,3.85
2022-11-08T23:11:29.885Z,2.08
2022-11-08T23:14:15.850Z,2.83
2022-11-08T23:16:44.732Z,3.60
2022-11-08T23:19:35.655Z,2.85
2022-11-08T23:22:22.582Z,2.13
2022-11-08T23:24:49.354Z,1.98
2022-11-08T23:27:38.591Z,2.88
2022-11-08T23:30:25.712Z,2.90
2022-11-08T23:32:52.758Z,2.38
2022-11-08T23:35:21.262Z,2.08
2022-11-08T23:37:48.399Z,5.30
2022-11-08T23:40:36.050Z,2.40
2022-11-08T23:43:38.913Z,3.50
2022-11-08T23:46:08.318Z,3.35
2022-11-08T23:48:36.545Z,3.53
2022-11-08T23:51:04.979Z,2.35
2022-11-08T23:53:34.195Z,3.00
2022-11-08T23:56:01.681Z,5.82
2022-11-08T23:58:28.398Z,2.15
